TimeCDT,TemperatureF,Dew PointF,Humidity,Sea Level PressureIn,VisibilityMPH,Wind Direction,Wind SpeedMPH,Gust SpeedMPH,PrecipitationIn,Events,Conditions,WindDirDegrees,DateUTC
12:15 AM,55.0,46.9,74,30.16,10.0,SW,5.8,-,N/A,,Clear,220,2012-09-16 05:15:00
12:35 AM,55.2,47.5,75,30.16,10.0,SW,5.8,-,N/A,,Clear,220,2012-09-16 05:35:00
12:55 AM,55.0,46.9,74,30.16,10.0,SW,5.8,-,N/A,,Clear,220,2012-09-16 05:55:00
1:15 AM,54.5,46.8,75,30.16,10.0,SW,5.8,-,N/A,,Clear,230,2012-09-16 06:15:00
1:35 AM,53.4,46.4,77,30.16,10.0,SW,5.8,-,N/A,,Clear,230,2012-09-16 06:35:00
1:55 AM,52.7,46.4,79,30.15,10.0,SW,4.6,-,N/A,,Clear,230,2012-09-16 06:55:00
2:15 AM,53.8,46.4,76,30.15,10.0,WSW,5.8,-,N/A,,Clear,240,2012-09-16 07:15:00
2:35 AM,54.3,46.8,76,30.15,10.0,Calm,Calm,-,N/A,,Clear,0,2012-09-16 07:35:00
2:55 AM,51.6,46.0,81,30.14,10.0,Calm,Calm,-,N/A,,Clear,0,2012-09-16 07:55:00
3:15 AM,51.3,46.4,83,30.14,10.0,Calm,Calm,-,N/A,,Clear,0,2012-09-16 08:15:00
3:35 AM,50.9,46.2,84,30.14,10.0,Calm,Calm,-,N/A,,Clear,0,2012-09-16 08:35:00
3:55 AM,50.9,46.0,83,30.14,10.0,Calm,Calm,-,N/A,,Clear,0,2012-09-16 08:55:00
4:15 AM,49.3,45.1,86,30.14,10.0,Calm,Calm,-,N/A,,Clear,0,2012-09-16 09:15:00
4:35 AM,49.8,45.7,86,30.14,10.0,Calm,Calm,-,N/A,,Clear,0,2012-09-16 09:35:00
4:55 AM,48.2,45.3,90,30.14,10.0,Calm,Calm,-,N/A,,Clear,0,2012-09-16 09:55:00
5:15 AM,45.9,43.5,92,30.14,10.0,SSW,4.6,-,N/A,,Clear,200,2012-09-16 10:15:00
5:35 AM,46.4,44.6,93,30.14,10.0,Calm,Calm,-,N/A,,Clear,0,2012-09-16 10:35:00
5:55 AM,46.4,44.2,92,30.15,10.0,SSW,3.5,-,N/A,,Clear,210,2012-09-16 10:55:00
6:15 AM,46.6,44.1,91,30.15,10.0,SW,3.5,-,N/A,,Clear,220,2012-09-16 11:15:00
6:35 AM,45.5,42.8,90,30.15,10.0,SSW,4.6,-,N/A,,Clear,210,2012-09-16 11:35:00
6:55 AM,45.9,43.5,92,30.15,10.0,Calm,Calm,-,N/A,,Clear,0,2012-09-16 11:55:00
7:15 AM,48.2,46.4,93,30.16,10.0,Calm,Calm,-,N/A,,Clear,0,2012-09-16 12:15:00
7:35 AM,51.4,48.0,88,30.16,10.0,Calm,Calm,-,N/A,,Clear,0,2012-09-16 12:35:00
7:55 AM,55.4,50.0,82,30.16,10.0,Calm,Calm,-,N/A,,Clear,0,2012-09-16 12:55:00
8:15 AM,59.0,52.2,78,30.16,10.0,Calm,Calm,-,N/A,,Clear,0,2012-09-16 13:15:00
8:35 AM,62.1,52.5,71,30.16,10.0,Calm,Calm,-,N/A,,Clear,0,2012-09-16 13:35:00
8:55 AM,64.9,51.4,62,30.16,10.0,Calm,Calm,-,N/A,,Clear,0,2012-09-16 13:55:00
9:15 AM,66.7,51.6,58,30.15,10.0,Calm,Calm,-,N/A,,Clear,0,2012-09-16 14:15:00
9:35 AM,68.7,50.4,52,30.15,10.0,Calm,Calm,-,N/A,,Clear,0,2012-09-16 14:35:00
9:55 AM,70.2,49.1,47,30.14,10.0,Calm,Calm,-,N/A,,Clear,0,2012-09-16 14:55:00
10:15 AM,71.6,47.7,43,30.14,10.0,Calm,Calm,-,N/A,,Clear,0,2012-09-16 15:15:00
10:35 AM,72.7,48.9,43,30.14,10.0,Calm,Calm,-,N/A,,Clear,0,2012-09-16 15:35:00
10:55 AM,73.4,47.8,40,30.13,10.0,Calm,Calm,-,N/A,,Clear,0,2012-09-16 15:55:00
11:15 AM,74.5,47.1,38,30.12,10.0,South,9.2,-,N/A,,Clear,180,2012-09-16 16:15:00
11:35 AM,74.8,48.0,39,30.12,10.0,South,6.9,-,N/A,,Clear,170,2012-09-16 16:35:00
11:55 AM,74.7,46.6,37,30.11,10.0,SSE,9.2,-,N/A,,Clear,160,2012-09-16 16:55:00
12:15 PM,75.6,46.4,35,30.11,10.0,South,6.9,-,N/A,,Clear,170,2012-09-16 17:15:00
12:35 PM,76.1,46.8,35,30.10,10.0,South,10.4,-,N/A,,Clear,170,2012-09-16 17:35:00
12:55 PM,76.3,46.0,34,30.09,10.0,South,6.9,-,N/A,,Clear,170,2012-09-16 17:55:00
1:15 PM,76.3,46.9,35,30.09,10.0,South,6.9,10.4,N/A,,Clear,180,2012-09-16 18:15:00
1:35 PM,77.0,49.3,38,30.08,10.0,South,8.1,-,N/A,,Clear,190,2012-09-16 18:35:00
1:55 PM,74.8,46.6,37,30.07,10.0,SW,4.6,-,N/A,,Clear,220,2012-09-16 18:55:00
2:15 PM,76.8,46.6,34,30.06,10.0,SSW,5.8,-,N/A,,Clear,200,2012-09-16 19:15:00
2:35 PM,76.6,45.0,32,30.05,10.0,South,5.8,-,N/A,,Clear,180,2012-09-16 19:35:00
2:55 PM,77.0,45.7,33,30.04,10.0,SSW,9.2,16.1,N/A,,Clear,210,2012-09-16 19:55:00
3:15 PM,77.0,44.8,32,30.03,10.0,South,8.1,-,N/A,,Clear,170,2012-09-16 20:15:00
3:35 PM,77.2,46.2,33,30.03,10.0,South,10.4,-,N/A,,Clear,180,2012-09-16 20:35:00
3:55 PM,77.0,46.0,33,30.03,10.0,SSW,10.4,-,N/A,,Clear,200,2012-09-16 20:55:00
4:15 PM,77.0,45.0,32,30.02,10.0,SW,8.1,-,N/A,,Clear,230,2012-09-16 21:15:00
4:35 PM,77.0,46.6,34,30.01,10.0,SW,6.9,-,N/A,,Clear,230,2012-09-16 21:35:00
4:55 PM,76.1,46.6,35,30.01,10.0,SSW,8.1,-,N/A,,Clear,200,2012-09-16 21:55:00
5:15 PM,75.2,46.6,36,30.01,10.0,SW,5.8,-,N/A,,Clear,220,2012-09-16 22:15:00
5:35 PM,73.9,48.9,41,30.00,10.0,SW,6.9,-,N/A,,Clear,220,2012-09-16 22:35:00
5:55 PM,73.4,50.0,44,30.00,10.0,SW,3.5,-,N/A,,Clear,230,2012-09-16 22:55:00
6:15 PM,72.9,50.0,44,30.00,10.0,Calm,Calm,-,N/A,,Clear,0,2012-09-16 23:15:00
6:35 PM,68.9,53.4,58,30.00,10.0,Calm,Calm,-,N/A,,Clear,0,2012-09-16 23:35:00
6:55 PM,66.7,53.1,61,30.00,10.0,Calm,Calm,-,N/A,,Clear,0,2012-09-16 23:55:00
7:15 PM,65.7,52.3,62,30.00,10.0,Calm,Calm,-,N/A,,Clear,0,2012-09-17 00:15:00
7:35 PM,62.4,53.4,72,30.00,10.0,Calm,Calm,-,N/A,,Clear,0,2012-09-17 00:35:00
7:55 PM,62.4,52.7,70,30.01,10.0,Calm,Calm,-,N/A,,Clear,0,2012-09-17 00:55:00
8:15 PM,60.8,52.9,75,30.01,10.0,Calm,Calm,-,N/A,,Clear,0,2012-09-17 01:15:00
8:35 PM,59.0,53.1,81,30.01,10.0,Calm,Calm,-,N/A,,Clear,0,2012-09-17 01:35:00
8:55 PM,62.6,51.8,68,30.01,10.0,South,5.8,-,N/A,,Clear,170,2012-09-17 01:55:00
9:15 PM,64.4,50.9,62,30.01,10.0,South,4.6,-,N/A,,Clear,170,2012-09-17 02:15:00
9:35 PM,61.9,51.1,68,30.02,10.0,South,5.8,-,N/A,,Scattered Clouds,170,2012-09-17 02:35:00
9:55 PM,63.7,50.9,63,30.01,10.0,South,6.9,-,N/A,,Mostly Cloudy,170,2012-09-17 02:55:00
10:15 PM,63.0,50.9,65,30.01,10.0,South,6.9,-,N/A,,Scattered Clouds,170,2012-09-17 03:15:00
10:35 PM,61.3,50.7,68,30.01,10.0,South,4.6,-,N/A,,Clear,190,2012-09-17 03:35:00
10:55 PM,60.8,50.9,70,30.02,10.0,South,6.9,-,N/A,,Clear,170,2012-09-17 03:55:00
11:15 PM,60.3,51.1,72,30.01,10.0,South,5.8,-,N/A,,Clear,190,2012-09-17 04:15:00
11:35 PM,58.8,51.4,76,30.01,10.0,Calm,Calm,-,N/A,,Clear,0,2012-09-17 04:35:00
11:55 PM,57.7,51.8,81,30.01,10.0,SW,3.5,-,N/A,,Clear,220,2012-09-17 04:55:00